createdAt,value
2018-03-11T00:00:26.825Z,30.97
2018-03-11T00:02:53.909Z,31.33
2018-03-11T00:05:21.176Z,27.47
2018-03-11T00:07:48.450Z,24.90
2018-03-11T00:10:15.741Z,24.70
2018-03-11T00:12:43.010Z,23.93
2018-03-11T00:15:10.296Z,29.67
2018-03-11T00:17:37.581Z,26.90
2018-03-11T00:20:04.849Z,27.60
2018-03-11T00:22:32.118Z,26.43
2018-03-11T00:24:59.417Z,30.67
2018-03-11T00:27:26.685Z,27.10
2018-03-11T00:29:53.949Z,30.70
2018-03-11T00:32:21.236Z,27.37
2018-03-11T00:34:48.510Z,27.20
2018-03-11T00:37:15.798Z,25.67
2018-03-11T00:39:43.062Z,23.00
2018-03-11T00:42:10.326Z,24.93
2018-03-11T00:44:37.629Z,33.67
2018-03-11T00:47:04.896Z,40.33
2018-03-11T00:49:32.169Z,42.10
2018-03-11T00:51:59.445Z,41.83
2018-03-11T00:54:26.720Z,43.80
2018-03-11T00:56:54.014Z,43.97
2018-03-11T00:59:21.303Z,45.53
2018-03-11T01:01:48.568Z,48.40
2018-03-11T01:04:15.864Z,50.90
2018-03-11T01:06:43.137Z,42.63
2018-03-11T01:09:10.421Z,45.27
2018-03-11T01:11:37.710Z,41.83
2018-03-11T01:14:04.981Z,40.23
2018-03-11T01:16:32.275Z,38.37
2018-03-11T01:18:59.532Z,32.20
2018-03-11T01:21:26.809Z,110.37
2018-03-11T01:23:54.113Z,34.13
2018-03-11T01:26:21.427Z,37.43
2018-03-11T01:28:48.698Z,38.90
2018-03-11T01:31:15.978Z,31.17
2018-03-11T01:33:43.245Z,44.00
2018-03-11T01:36:10.522Z,36.73
2018-03-11T01:38:37.818Z,38.60
2018-03-11T01:41:05.093Z,43.20
2018-03-11T01:43:32.360Z,35.87
2018-03-11T01:45:59.660Z,33.07
2018-03-11T01:48:26.972Z,88.23
2018-03-11T01:50:54.270Z,32.43
2018-03-11T01:53:21.549Z,32.37
2018-03-11T01:55:48.848Z,27.57
2018-03-11T01:58:16.116Z,29.30
2018-03-11T02:00:43.385Z,31.10
2018-03-11T02:03:10.690Z,28.23
2018-03-11T02:05:37.956Z,34.23
2018-03-11T02:08:05.244Z,35.17
2018-03-11T02:10:32.513Z,21.40
2018-03-11T02:12:59.805Z,21.27
2018-03-11T02:15:27.069Z,28.53
2018-03-11T02:17:54.367Z,17.80
2018-03-11T02:20:21.633Z,19.70
2018-03-11T02:22:48.896Z,27.43
2018-03-11T02:25:16.188Z,32.20
2018-03-11T02:27:43.460Z,15.30
2018-03-11T02:30:10.762Z,17.73
2018-03-11T02:32:38.072Z,16.50
2018-03-11T02:35:05.333Z,25.23
2018-03-11T02:37:32.597Z,24.37
2018-03-11T02:39:59.893Z,18.70
2018-03-11T02:42:27.163Z,41.30
2018-03-11T02:44:54.429Z,21.00
2018-03-11T02:47:21.722Z,19.87
2018-03-11T02:49:48.996Z,20.57
2018-03-11T02:52:16.262Z,18.60
2018-03-11T02:54:43.563Z,21.80
2018-03-11T02:57:10.830Z,43.47
2018-03-11T02:59:38.092Z,17.40
2018-03-11T03:02:05.394Z,18.67
2018-03-11T03:04:32.656Z,17.33
2018-03-11T03:06:59.936Z,17.53
2018-03-11T03:09:27.208Z,21.47
2018-03-11T03:11:54.496Z,21.20
2018-03-11T03:14:21.759Z,20.30
2018-03-11T03:16:49.051Z,14.40
2018-03-11T03:19:16.317Z,15.63
2018-03-11T03:21:43.591Z,16.90
2018-03-11T03:24:10.888Z,13.77
2018-03-11T03:26:38.150Z,15.47
2018-03-11T03:29:05.441Z,14.50
2018-03-11T03:31:32.704Z,14.70
2018-03-11T03:33:59.973Z,15.53
2018-03-11T03:36:27.930Z,18.33
2018-03-11T03:38:55.174Z,22.63
2018-03-11T03:41:22.440Z,15.00
2018-03-11T03:43:49.704Z,17.17
2018-03-11T03:46:16.996Z,16.00
2018-03-11T03:48:44.293Z,22.30
2018-03-11T03:51:11.581Z,19.33
2018-03-11T03:53:38.873Z,19.37
2018-03-11T03:56:06.132Z,23.57
2018-03-11T03:58:33.402Z,19.37
2018-03-11T04:01:00.688Z,25.73
2018-03-11T04:03:27.986Z,24.27
2018-03-11T04:05:55.248Z,28.30
2018-03-11T04:08:22.545Z,30.80
2018-03-11T04:10:49.837Z,30.53
2018-03-11T04:13:17.104Z,29.23
2018-03-11T04:15:44.397Z,40.27
2018-03-11T04:18:11.660Z,35.97
2018-03-11T04:20:38.920Z,46.73
2018-03-11T04:23:06.205Z,40.50
2018-03-11T04:25:33.475Z,33.57
2018-03-11T04:28:00.760Z,36.43
2018-03-11T04:30:28.036Z,32.53
2018-03-11T04:32:55.330Z,30.73
2018-03-11T04:35:22.596Z,35.33
2018-03-11T04:37:49.892Z,33.83
2018-03-11T04:40:17.161Z,29.60
2018-03-11T04:42:44.450Z,29.77
2018-03-11T04:45:11.723Z,28.90
2018-03-11T04:47:38.997Z,28.87
2018-03-11T04:50:06.265Z,39.53
2018-03-11T04:52:33.548Z,33.20
2018-03-11T04:55:00.818Z,31.87
2018-03-11T04:57:28.105Z,26.80
2018-03-11T04:59:55.396Z,33.03
2018-03-11T05:02:22.663Z,27.20
2018-03-11T05:04:49.952Z,27.67
2018-03-11T05:07:17.226Z,25.87
2018-03-11T05:09:44.512Z,23.57
2018-03-11T05:12:11.773Z,29.93
2018-03-11T05:14:39.051Z,27.33
2018-03-11T05:17:06.333Z,27.97
2018-03-11T05:19:33.606Z,26.40
2018-03-11T05:22:00.870Z,23.43
2018-03-11T05:24:28.168Z,25.73
2018-03-11T05:26:55.434Z,24.53
2018-03-11T05:29:22.725Z,23.57
2018-03-11T05:31:49.988Z,22.57
2018-03-11T05:34:17.292Z,22.13
2018-03-11T05:36:44.628Z,22.60
2018-03-11T05:39:11.924Z,24.20
2018-03-11T05:41:39.184Z,28.93
2018-03-11T05:44:06.467Z,24.43
2018-03-11T05:46:33.760Z,22.27
2018-03-11T05:49:01.117Z,19.60
2018-03-11T05:51:28.380Z,16.67
2018-03-11T05:53:55.673Z,17.37
2018-03-11T05:56:22.941Z,18.10
2018-03-11T05:58:50.228Z,17.23
2018-03-11T06:01:17.529Z,16.20
2018-03-11T06:03:44.791Z,14.83
2018-03-11T06:06:12.052Z,15.50
2018-03-11T06:08:39.351Z,14.23
2018-03-11T06:11:06.649Z,14.20
2018-03-11T06:13:33.900Z,13.90
2018-03-11T06:16:01.185Z,14.63
2018-03-11T06:18:28.474Z,14.23
2018-03-11T06:20:55.749Z,15.63
2018-03-11T06:23:23.033Z,15.13
2018-03-11T06:25:50.306Z,15.37
2018-03-11T06:28:17.572Z,14.30
2018-03-11T06:30:44.864Z,16.73
2018-03-11T06:33:12.148Z,13.97
2018-03-11T06:35:39.416Z,12.47
2018-03-11T06:38:06.722Z,10.33
2018-03-11T06:40:33.981Z,9.83
2018-03-11T06:43:01.229Z,8.20
2018-03-11T06:45:28.518Z,8.20
2018-03-11T06:47:55.768Z,7.97
2018-03-11T06:50:23.054Z,7.03
2018-03-11T06:52:50.313Z,7.27
2018-03-11T06:55:17.574Z,7.77
2018-03-11T06:57:45.302Z,8.43
2018-03-11T07:00:12.550Z,7.80
2018-03-11T07:02:39.804Z,8.40
2018-03-11T07:05:07.086Z,8.13
2018-03-11T07:07:34.332Z,8.60
2018-03-11T07:10:01.617Z,9.00
2018-03-11T07:12:28.896Z,9.00
2018-03-11T07:14:56.145Z,8.00
2018-03-11T07:17:23.434Z,11.40
2018-03-11T07:19:50.718Z,14.83
2018-03-11T07:22:17.980Z,9.50
2018-03-11T07:24:45.270Z,5.70
2018-03-11T07:27:12.549Z,9.03
2018-03-11T07:29:39.806Z,4.60
2018-03-11T07:32:07.060Z,12.60
2018-03-11T07:34:34.365Z,3.90
2018-03-11T07:37:01.615Z,2.77
2018-03-11T07:39:28.865Z,3.23
2018-03-11T07:41:56.140Z,3.43
2018-03-11T07:44:23.401Z,3.07
2018-03-11T07:46:50.673Z,2.57
2018-03-11T07:49:17.965Z,2.70
2018-03-11T07:51:45.184Z,2.10
2018-03-11T07:54:12.460Z,2.63
2018-03-11T07:56:39.727Z,2.43
2018-03-11T07:59:07.005Z,2.33
2018-03-11T08:01:34.261Z,2.90
2018-03-11T08:04:01.540Z,3.17
2018-03-11T08:06:28.794Z,2.60
2018-03-11T08:08:56.065Z,2.20
2018-03-11T08:11:23.321Z,2.70
2018-03-11T08:13:50.613Z,2.70
2018-03-11T08:16:17.905Z,3.43
2018-03-11T08:18:45.208Z,3.13
2018-03-11T08:21:12.462Z,2.93
2018-03-11T08:23:39.712Z,3.03
2018-03-11T08:26:07.014Z,3.00
2018-03-11T08:28:34.253Z,3.33
2018-03-11T08:31:01.540Z,3.40
2018-03-11T08:33:28.796Z,3.60
2018-03-11T08:35:56.050Z,3.40
2018-03-11T08:38:23.329Z,3.57
2018-03-11T08:40:50.601Z,3.13
2018-03-11T08:43:17.862Z,3.87
2018-03-11T08:45:45.153Z,3.87
2018-03-11T08:48:12.404Z,3.63
2018-03-11T08:50:39.785Z,4.03
2018-03-11T08:53:07.036Z,4.40
2018-03-11T08:55:34.300Z,4.47
2018-03-11T08:58:01.585Z,5.00
2018-03-11T09:00:28.849Z,4.90
2018-03-11T09:02:56.133Z,6.07
2018-03-11T09:05:23.388Z,4.33
2018-03-11T09:07:50.644Z,5.10
2018-03-11T09:10:17.934Z,4.97
2018-03-11T09:15:18.993Z,4.40
2018-03-11T09:17:46.250Z,5.03
2018-03-11T09:20:13.497Z,5.23
2018-03-11T09:22:40.780Z,5.23
2018-03-11T09:25:08.042Z,4.83
2018-03-11T09:27:35.292Z,6.00
2018-03-11T09:30:02.584Z,5.40
2018-03-11T09:32:29.831Z,6.07
2018-03-11T09:34:57.130Z,6.50
2018-03-11T09:37:24.381Z,5.87
2018-03-11T09:39:51.641Z,6.07
2018-03-11T09:42:18.922Z,5.63
2018-03-11T09:44:46.173Z,5.53
2018-03-11T09:47:13.456Z,6.43
2018-03-11T09:49:40.719Z,6.73
2018-03-11T09:52:07.965Z,6.30
2018-03-11T09:54:35.288Z,7.27
2018-03-11T09:57:02.485Z,7.07
2018-03-11T09:59:29.769Z,6.53
2018-03-11T10:01:57.032Z,6.57
2018-03-11T10:04:24.312Z,7.60
2018-03-11T10:06:51.597Z,7.30
2018-03-11T10:09:18.844Z,6.90
2018-03-11T10:11:46.142Z,6.93
2018-03-11T10:14:13.388Z,7.60
2018-03-11T10:16:40.651Z,6.47
2018-03-11T10:19:07.935Z,7.30
2018-03-11T10:21:35.194Z,7.17
2018-03-11T10:24:02.471Z,6.57
2018-03-11T10:26:29.759Z,6.17
2018-03-11T10:28:57.005Z,6.50
2018-03-11T10:31:24.296Z,6.00
2018-03-11T10:33:51.577Z,6.20
2018-03-11T10:36:18.831Z,5.97
2018-03-11T10:38:46.105Z,6.13
2018-03-11T10:41:13.360Z,6.30
2018-03-11T10:43:40.641Z,6.10
2018-03-11T10:46:07.893Z,6.10
2018-03-11T10:48:35.210Z,6.03
2018-03-11T10:51:02.456Z,5.77
2018-03-11T10:53:29.732Z,5.17
2018-03-11T10:55:56.992Z,6.30
2018-03-11T10:58:24.256Z,5.90
2018-03-11T11:00:52.528Z,6.47
2018-03-11T11:03:25.713Z,6.17
2018-03-11T11:05:52.986Z,5.90
2018-03-11T11:08:20.305Z,6.27
2018-03-11T11:10:47.653Z,7.50
2018-03-11T11:13:15.001Z,6.87
2018-03-11T11:15:42.569Z,7.10
2018-03-11T11:18:09.823Z,7.40
2018-03-11T11:20:37.069Z,7.40
2018-03-11T11:23:04.355Z,8.13
2018-03-11T11:25:31.707Z,8.23
2018-03-11T11:27:58.948Z,9.17
2018-03-11T11:30:26.237Z,8.27
2018-03-11T11:32:53.498Z,7.87
2018-03-11T11:35:21.414Z,8.20
2018-03-11T11:37:48.677Z,7.20
2018-03-11T11:40:15.936Z,6.80
2018-03-11T11:42:43.234Z,6.60
2018-03-11T11:45:10.482Z,7.30
2018-03-11T11:47:37.745Z,7.97
2018-03-11T11:50:05.026Z,6.23
2018-03-11T11:52:32.280Z,7.10
2018-03-11T11:54:59.560Z,7.10
2018-03-11T11:57:26.828Z,7.60
2018-03-11T11:59:54.118Z,6.80
2018-03-11T12:02:21.390Z,9.00
2018-03-11T12:04:48.636Z,7.43
2018-03-11T12:07:15.917Z,7.23
2018-03-11T12:09:43.196Z,7.33
2018-03-11T12:12:10.490Z,6.50
2018-03-11T12:14:37.738Z,7.30
2018-03-11T12:17:05.012Z,7.10
2018-03-11T12:19:32.279Z,7.10
2018-03-11T12:21:59.557Z,7.10
2018-03-11T12:24:26.814Z,7.80
2018-03-11T12:26:54.093Z,7.63
2018-03-11T12:29:21.346Z,7.23
2018-03-11T12:31:48.633Z,7.30
2018-03-11T12:34:15.901Z,6.30
2018-03-11T12:36:43.169Z,7.33
2018-03-11T12:39:10.450Z,6.80
2018-03-11T12:41:37.700Z,6.57
2018-03-11T12:44:04.977Z,7.57
2018-03-11T12:46:32.263Z,6.97
2018-03-11T12:48:59.556Z,6.00
2018-03-11T12:51:26.809Z,6.67
2018-03-11T12:53:54.062Z,6.30
2018-03-11T12:56:21.589Z,6.63
2018-03-11T12:58:48.844Z,6.90
2018-03-11T13:01:16.098Z,6.30
2018-03-11T13:03:43.376Z,6.37
2018-03-11T13:06:10.670Z,5.57
2018-03-11T13:08:37.948Z,6.90
2018-03-11T13:11:05.214Z,6.20
2018-03-11T13:13:32.501Z,6.67
2018-03-11T13:15:59.760Z,6.50
2018-03-11T13:18:27.061Z,5.70
2018-03-11T13:21:00.694Z,5.90
2018-03-11T13:23:27.953Z,5.80
2018-03-11T13:25:55.401Z,5.00
2018-03-11T13:28:28.701Z,5.90
2018-03-11T13:30:56.123Z,4.80
2018-03-11T13:33:29.335Z,4.50
2018-03-11T13:35:56.600Z,4.07
2018-03-11T13:38:29.821Z,4.47
2018-03-11T13:40:57.084Z,4.90
2018-03-11T13:43:24.338Z,5.07
2018-03-11T13:45:57.468Z,5.57
2018-03-11T13:48:24.756Z,4.73
2018-03-11T13:50:52.010Z,4.20
2018-03-11T13:53:25.118Z,4.20
2018-03-11T13:55:52.369Z,3.77
2018-03-11T13:58:26.504Z,3.53
2018-03-11T14:00:53.914Z,3.80
2018-03-11T14:03:21.793Z,3.63
2018-03-11T14:05:49.151Z,3.73
2018-03-11T14:08:16.454Z,3.93
2018-03-11T14:10:43.696Z,4.53
2018-03-11T14:13:10.981Z,5.00
2018-03-11T14:15:38.232Z,5.20
2018-03-11T14:18:05.481Z,5.23
2018-03-11T14:20:32.755Z,4.77
2018-03-11T14:23:00.011Z,5.83
2018-03-11T14:25:27.293Z,7.27
2018-03-11T14:27:54.549Z,7.90
2018-03-11T14:30:21.850Z,7.90
2018-03-11T14:32:49.072Z,9.40
2018-03-11T14:35:16.346Z,10.27
2018-03-11T14:37:43.638Z,9.53
2018-03-11T14:40:10.900Z,8.63
2018-03-11T14:42:38.189Z,11.43
2018-03-11T14:45:05.489Z,13.13
2018-03-11T14:47:32.752Z,11.80
2018-03-11T14:50:00.058Z,18.53
2018-03-11T14:52:27.322Z,18.73
2018-03-11T14:54:54.686Z,14.70
2018-03-11T14:57:21.993Z,17.47
2018-03-11T14:59:49.253Z,18.10
2018-03-11T15:02:16.535Z,16.40
2018-03-11T15:04:43.834Z,17.27
2018-03-11T15:07:11.121Z,16.43
2018-03-11T15:09:38.423Z,18.20
2018-03-11T15:12:05.715Z,18.23
2018-03-11T15:14:32.996Z,17.60
2018-03-11T15:17:00.290Z,17.63
2018-03-11T15:19:27.587Z,16.50
2018-03-11T15:21:54.853Z,16.17
2018-03-11T15:24:22.160Z,16.23
2018-03-11T15:26:49.421Z,15.97
2018-03-11T15:29:16.698Z,15.63
2018-03-11T15:31:43.991Z,15.60
2018-03-11T15:34:11.249Z,16.70
2018-03-11T15:36:38.518Z,15.67
2018-03-11T15:39:05.854Z,15.23
2018-03-11T15:41:33.068Z,14.60
2018-03-11T15:44:00.461Z,14.73
2018-03-11T15:46:27.726Z,15.00
2018-03-11T15:48:54.989Z,13.63
2018-03-11T15:51:22.284Z,12.23
2018-03-11T15:53:49.565Z,14.03
2018-03-11T15:56:16.831Z,13.00
2018-03-11T15:58:44.120Z,11.30
2018-03-11T16:01:11.385Z,11.07
2018-03-11T16:03:38.679Z,10.23
2018-03-11T16:06:05.970Z,11.03
2018-03-11T16:08:33.236Z,10.03
2018-03-11T16:11:00.607Z,9.93
2018-03-11T16:13:27.959Z,9.10
2018-03-11T16:15:55.249Z,8.43
2018-03-11T16:18:22.509Z,10.90
2018-03-11T16:20:49.917Z,8.70
2018-03-11T16:23:17.173Z,10.10
2018-03-11T16:25:44.477Z,8.97
2018-03-11T16:28:12.285Z,9.00
2018-03-11T16:30:39.910Z,9.23
2018-03-11T16:33:07.192Z,9.80
2018-03-11T16:35:34.532Z,10.10
2018-03-11T16:38:02.784Z,11.10
2018-03-11T16:40:30.063Z,11.27
2018-03-11T16:42:57.328Z,13.73
2018-03-11T16:45:24.633Z,10.97
2018-03-11T16:47:51.901Z,12.97
2018-03-11T16:50:19.165Z,13.30
2018-03-11T16:52:46.459Z,12.47
2018-03-11T16:55:13.970Z,12.77
2018-03-11T16:57:41.245Z,11.70
2018-03-11T17:00:08.559Z,12.60
2018-03-11T17:02:35.864Z,11.20
2018-03-11T17:05:03.128Z,12.63
2018-03-11T17:07:30.394Z,12.63
2018-03-11T17:09:57.684Z,10.87
2018-03-11T17:12:24.983Z,10.90
2018-03-11T17:14:53.096Z,10.80
2018-03-11T17:17:20.380Z,13.03
2018-03-11T17:19:47.664Z,10.83
2018-03-11T17:22:14.943Z,11.10
2018-03-11T17:24:42.233Z,9.47
2018-03-11T17:27:09.493Z,9.40
2018-03-11T17:29:36.788Z,10.37
2018-03-11T17:32:04.061Z,9.90
2018-03-11T17:34:31.324Z,10.77
2018-03-11T17:36:58.610Z,9.70
2018-03-11T17:39:25.928Z,10.83
2018-03-11T17:41:53.161Z,11.90
2018-03-11T17:44:20.439Z,8.90
2018-03-11T17:46:47.698Z,9.83
2018-03-11T17:49:14.960Z,10.30
2018-03-11T17:51:42.252Z,9.07
2018-03-11T17:54:09.513Z,9.23
2018-03-11T17:56:36.847Z,9.20
2018-03-11T17:59:04.063Z,8.97
2018-03-11T18:01:31.352Z,9.47
2018-03-11T18:03:58.636Z,10.03
2018-03-11T18:06:26.120Z,8.93
2018-03-11T18:08:53.357Z,10.57
2018-03-11T18:11:20.748Z,11.60
2018-03-11T18:13:48.023Z,11.73
2018-03-11T18:16:15.283Z,11.60
2018-03-11T18:18:42.587Z,11.40
2018-03-11T18:21:09.845Z,13.47
2018-03-11T18:23:37.152Z,11.90
2018-03-11T18:26:04.440Z,12.77
2018-03-11T18:28:31.706Z,14.63
2018-03-11T18:30:58.993Z,13.03
2018-03-11T18:33:26.258Z,12.50
2018-03-11T18:35:53.553Z,13.43
2018-03-11T18:38:20.825Z,16.23
2018-03-11T18:40:48.096Z,15.70
2018-03-11T18:43:15.395Z,19.17
2018-03-11T18:45:42.945Z,17.00
2018-03-11T18:48:10.232Z,17.80
2018-03-11T18:50:37.534Z,22.77
2018-03-11T18:53:04.797Z,22.73
2018-03-11T18:55:32.085Z,25.80
2018-03-11T18:57:59.355Z,25.47
2018-03-11T19:00:26.628Z,27.13
2018-03-11T19:02:54.879Z,23.87
2018-03-11T19:05:22.145Z,25.40
2018-03-11T19:07:49.432Z,22.53
2018-03-11T19:10:16.725Z,26.20
2018-03-11T19:12:44.021Z,29.87
2018-03-11T19:15:11.325Z,28.83
2018-03-11T19:17:38.581Z,32.20
2018-03-11T19:20:05.844Z,31.00
2018-03-11T19:22:33.143Z,34.87
2018-03-11T19:25:00.424Z,30.47
2018-03-11T19:27:27.693Z,38.20
2018-03-11T19:29:54.998Z,38.70
2018-03-11T19:32:22.260Z,33.23
2018-03-11T19:34:49.559Z,33.77
2018-03-11T19:37:16.832Z,35.30
2018-03-11T19:39:44.181Z,34.00
2018-03-11T19:42:11.404Z,40.00
2018-03-11T19:44:38.709Z,33.90
2018-03-11T19:47:05.993Z,33.40
2018-03-11T19:49:33.288Z,35.20
2018-03-11T19:52:00.553Z,38.10
2018-03-11T19:54:27.848Z,31.23
2018-03-11T19:56:55.141Z,31.07
2018-03-11T19:59:22.404Z,27.90
2018-03-11T20:01:49.765Z,27.73
2018-03-11T20:04:17.006Z,30.37
2018-03-11T20:06:44.289Z,28.40
2018-03-11T20:09:11.548Z,37.90
2018-03-11T20:11:38.879Z,27.00
2018-03-11T20:14:06.140Z,25.70
2018-03-11T20:16:33.449Z,24.60
2018-03-11T20:19:00.761Z,26.50
2018-03-11T20:21:28.025Z,24.87
2018-03-11T20:23:55.309Z,24.47
2018-03-11T20:26:22.576Z,28.97
2018-03-11T20:28:49.887Z,27.63
2018-03-11T20:31:17.164Z,31.93
2018-03-11T20:33:44.469Z,37.60
2018-03-11T20:36:12.512Z,35.77
2018-03-11T20:38:39.780Z,26.93
2018-03-11T20:41:07.074Z,25.53
2018-03-11T20:43:34.408Z,33.40
2018-03-11T20:46:01.672Z,25.77
2018-03-11T20:48:28.946Z,22.63
2018-03-11T20:50:56.242Z,22.80
2018-03-11T20:53:23.507Z,22.67
2018-03-11T20:55:50.808Z,24.30
2018-03-11T20:58:18.065Z,26.17
2018-03-11T21:00:45.345Z,25.00
2018-03-11T21:03:12.641Z,25.60
2018-03-11T21:05:39.914Z,30.70
2018-03-11T21:08:07.216Z,24.53
2018-03-11T21:10:34.481Z,21.27
2018-03-11T21:13:01.747Z,25.60
2018-03-11T21:15:29.028Z,22.50
2018-03-11T21:17:56.295Z,22.60
2018-03-11T21:20:23.592Z,23.03
2018-03-11T21:22:50.852Z,29.60
2018-03-11T21:25:18.121Z,23.43
2018-03-11T21:27:45.416Z,24.17
2018-03-11T21:30:12.687Z,24.27
2018-03-11T21:32:39.952Z,22.83
2018-03-11T21:35:07.245Z,19.90
2018-03-11T21:37:34.515Z,19.70
2018-03-11T21:40:01.818Z,23.70
2018-03-11T21:42:29.080Z,27.43
2018-03-11T21:44:56.336Z,23.80
2018-03-11T21:47:23.640Z,27.10
2018-03-11T21:49:50.921Z,21.13
2018-03-11T21:52:18.213Z,22.80
2018-03-11T21:54:45.478Z,21.10
2018-03-11T21:57:12.777Z,19.60
2018-03-11T21:59:40.040Z,18.40
2018-03-11T22:02:07.317Z,18.90
2018-03-11T22:04:34.607Z,19.27
2018-03-11T22:07:01.876Z,20.13
2018-03-11T22:09:29.150Z,18.60
2018-03-11T22:11:56.444Z,16.07
2018-03-11T22:14:23.720Z,14.20
2018-03-11T22:16:51.001Z,13.40
2018-03-11T22:19:18.273Z,13.93
2018-03-11T22:21:45.574Z,14.43
2018-03-11T22:24:12.835Z,14.07
2018-03-11T22:26:40.125Z,14.23
2018-03-11T22:29:07.388Z,14.53
2018-03-11T22:31:34.678Z,14.37
2018-03-11T22:34:01.953Z,12.67
2018-03-11T22:36:29.221Z,14.10
2018-03-11T22:38:56.522Z,12.37
2018-03-11T22:41:23.812Z,11.60
2018-03-11T22:43:51.072Z,10.63
2018-03-11T22:46:18.373Z,15.17
2018-03-11T22:48:45.710Z,11.07
2018-03-11T22:51:13.482Z,12.77
2018-03-11T22:53:40.801Z,10.63
2018-03-11T22:56:08.100Z,20.00
2018-03-11T22:58:35.366Z,11.30
2018-03-11T23:01:02.657Z,11.00
2018-03-11T23:03:29.925Z,11.17
2018-03-11T23:05:57.213Z,15.53
2018-03-11T23:08:24.476Z,13.90
2018-03-11T23:10:51.765Z,11.70
2018-03-11T23:13:19.032Z,11.70
2018-03-11T23:15:46.328Z,10.37
2018-03-11T23:18:13.602Z,12.10
2018-03-11T23:20:40.893Z,13.33
2018-03-11T23:23:08.148Z,8.20
2018-03-11T23:25:35.432Z,7.30
2018-03-11T23:28:02.698Z,7.10
2018-03-11T23:30:29.974Z,6.17
2018-03-11T23:32:57.226Z,9.20
2018-03-11T23:35:24.517Z,9.37
2018-03-11T23:37:51.775Z,6.40
2018-03-11T23:40:19.057Z,6.93
2018-03-11T23:42:46.312Z,8.50
2018-03-11T23:45:13.585Z,7.30
2018-03-11T23:47:40.842Z,5.93
2018-03-11T23:50:08.112Z,4.40
2018-03-11T23:52:35.366Z,4.93
2018-03-11T23:55:02.628Z,5.50
2018-03-11T23:57:29.890Z,5.83
2018-03-11T23:59:57.154Z,5.70
